createdAt,value
2023-05-13T00:01:29.794Z,12.43
2023-05-13T00:04:34.361Z,12.27
2023-05-13T00:07:38.575Z,10.90
2023-05-13T00:10:42.780Z,14.40
2023-05-13T00:13:46.916Z,11.85
2023-05-13T00:16:51.283Z,13.00
2023-05-13T00:19:55.686Z,12.13
2023-05-13T00:22:59.953Z,14.23
2023-05-13T00:26:04.204Z,14.18
2023-05-13T00:29:08.642Z,12.68
2023-05-13T00:32:12.997Z,13.20
2023-05-13T00:35:17.568Z,11.73
2023-05-13T00:38:22.043Z,12.35
2023-05-13T00:41:26.029Z,11.30
2023-05-13T00:44:30.512Z,11.27
2023-05-13T00:47:34.339Z,11.82
2023-05-13T00:50:39.315Z,11.60
2023-05-13T00:53:43.343Z,10.40
2023-05-13T00:56:47.546Z,12.63
2023-05-13T00:59:51.986Z,11.18
2023-05-13T01:03:19.302Z,10.70
2023-05-13T01:06:52.079Z,12.73
2023-05-13T01:10:11.738Z,12.40
2023-05-13T01:13:23.354Z,11.48
2023-05-13T01:16:37.181Z,11.60
2023-05-13T01:19:49.589Z,15.63
2023-05-13T01:22:53.902Z,10.60
2023-05-13T01:25:58.123Z,12.05
2023-05-13T01:29:02.306Z,11.65
2023-05-13T01:32:08.720Z,10.95
2023-05-13T01:35:14.965Z,12.10
2023-05-13T01:38:21.254Z,14.40
2023-05-13T01:41:25.400Z,12.70
2023-05-13T01:44:29.576Z,15.82
2023-05-13T01:47:33.609Z,10.20
2023-05-13T01:50:37.671Z,16.02
2023-05-13T01:53:41.841Z,14.95
2023-05-13T01:56:46.250Z,13.32
2023-05-13T01:59:50.561Z,9.18
2023-05-13T02:02:54.795Z,10.55
2023-05-13T02:05:58.661Z,10.80
2023-05-13T02:09:03.407Z,10.00
2023-05-13T02:12:08.189Z,12.68
2023-05-13T02:15:12.344Z,12.63
2023-05-13T02:18:16.381Z,12.20
2023-05-13T02:21:20.571Z,10.52
2023-05-13T02:24:25.811Z,10.18
2023-05-13T02:27:30.204Z,10.15
2023-05-13T02:30:34.352Z,10.20
2023-05-13T02:33:38.298Z,10.50
2023-05-13T02:36:42.661Z,11.27
2023-05-13T02:39:46.974Z,12.95
2023-05-13T02:42:51.476Z,10.45
2023-05-13T02:45:55.849Z,11.10
2023-05-13T02:48:59.936Z,11.60
2023-05-13T02:52:04.241Z,10.35
2023-05-13T02:55:09.476Z,12.55
2023-05-13T02:58:13.631Z,10.52
2023-05-13T03:01:17.689Z,12.48
2023-05-13T03:04:21.603Z,10.18
2023-05-13T03:07:25.532Z,10.57
2023-05-13T03:10:29.895Z,11.75
2023-05-13T03:13:33.914Z,13.27
2023-05-13T03:16:37.912Z,13.38
2023-05-13T03:19:41.966Z,11.25
2023-05-13T03:22:46.180Z,11.10
2023-05-13T03:25:50.532Z,11.18
2023-05-13T03:28:54.522Z,10.68
2023-05-13T03:31:58.982Z,12.82
2023-05-13T03:35:03.648Z,10.38
2023-05-13T03:38:07.672Z,10.02
2023-05-13T03:41:11.638Z,11.65
2023-05-13T03:44:15.563Z,14.27
2023-05-13T03:47:19.550Z,12.00
2023-05-13T03:50:24.119Z,11.57
2023-05-13T03:53:28.761Z,12.80
2023-05-13T03:56:32.875Z,9.80
2023-05-13T03:59:36.745Z,16.02
2023-05-13T04:02:40.942Z,11.05
2023-05-13T04:05:49.360Z,11.95
2023-05-13T04:08:53.468Z,15.32
2023-05-13T04:11:57.770Z,12.68
2023-05-13T04:15:01.846Z,14.05
2023-05-13T04:18:06.457Z,10.10
2023-05-13T04:21:11.326Z,10.18
2023-05-13T04:24:15.233Z,12.60
2023-05-13T04:27:19.296Z,11.48
2023-05-13T04:30:23.921Z,11.15
2023-05-13T04:33:27.964Z,9.85
2023-05-13T04:36:32.165Z,10.15
2023-05-13T04:39:36.468Z,11.38
2023-05-13T04:42:41.216Z,10.25
2023-05-13T04:45:47.819Z,12.90
2023-05-13T04:48:52.093Z,10.20
2023-05-13T04:51:57.332Z,11.27
2023-05-13T04:55:01.266Z,11.05
2023-05-13T04:58:05.473Z,10.07
2023-05-13T05:01:09.890Z,9.55
2023-05-13T05:04:14.106Z,10.77
2023-05-13T05:07:18.174Z,11.05
2023-05-13T05:10:22.347Z,9.48
2023-05-13T05:13:26.574Z,9.45
2023-05-13T05:16:30.680Z,13.20
2023-05-13T05:19:34.527Z,12.55
2023-05-13T05:22:39.043Z,12.05
2023-05-13T05:25:43.249Z,11.05
2023-05-13T05:28:47.337Z,12.43
2023-05-13T05:31:51.526Z,10.35
2023-05-13T05:34:55.593Z,12.98
2023-05-13T05:37:59.497Z,11.82
2023-05-13T05:41:03.591Z,14.10
2023-05-13T05:44:07.943Z,14.25
2023-05-13T05:47:11.881Z,12.82
2023-05-13T05:50:17.725Z,13.98
2023-05-13T05:53:22.026Z,12.88
2023-05-13T05:56:26.256Z,12.65
2023-05-13T05:59:30.821Z,13.07
2023-05-13T06:02:34.901Z,12.20
2023-05-13T06:05:39.364Z,9.55
2023-05-13T06:08:43.323Z,11.65
2023-05-13T06:11:47.720Z,11.20
2023-05-13T06:14:51.991Z,11.90
2023-05-13T06:17:57.015Z,12.60
2023-05-13T06:21:01.444Z,13.38
2023-05-13T06:24:05.648Z,11.93
2023-05-13T06:27:11.495Z,11.73
2023-05-13T06:30:16.070Z,13.43
2023-05-13T06:33:20.520Z,12.00
2023-05-13T06:36:24.778Z,11.07
2023-05-13T06:39:29.166Z,9.60
2023-05-13T06:42:33.047Z,11.43
2023-05-13T06:45:37.219Z,12.00
2023-05-13T06:48:41.896Z,9.63
2023-05-13T06:51:45.961Z,9.20
2023-05-13T06:54:50.300Z,10.10
2023-05-13T06:57:54.508Z,9.98
2023-05-13T07:00:58.864Z,7.03
2023-05-13T07:04:03.171Z,5.90
2023-05-13T07:07:07.260Z,9.18
2023-05-13T07:10:11.285Z,9.82
2023-05-13T07:13:15.781Z,9.55
2023-05-13T07:16:19.844Z,5.88
2023-05-13T07:19:24.359Z,7.78
2023-05-13T07:22:28.512Z,7.50
2023-05-13T07:25:32.674Z,6.90
2023-05-13T07:28:36.876Z,7.07
2023-05-13T07:31:41.140Z,7.93
2023-05-13T07:34:48.087Z,6.03
2023-05-13T07:37:52.375Z,9.50
2023-05-13T07:40:56.535Z,3.88
2023-05-13T07:44:00.667Z,7.85
2023-05-13T07:47:05.308Z,7.15
2023-05-13T07:50:09.414Z,4.43
2023-05-13T07:53:13.874Z,8.93
2023-05-13T07:56:18.277Z,6.00
2023-05-13T07:59:22.554Z,4.78
2023-05-13T08:02:27.265Z,5.78
2023-05-13T08:05:31.766Z,8.00
2023-05-13T08:08:35.804Z,6.15
2023-05-13T08:11:39.878Z,7.97
2023-05-13T08:14:44.124Z,5.68
2023-05-13T08:17:49.190Z,5.13
2023-05-13T08:20:53.211Z,4.78
2023-05-13T08:23:57.109Z,5.70
2023-05-13T08:27:01.113Z,7.85
2023-05-13T08:30:06.325Z,5.05
2023-05-13T08:33:15.611Z,5.60
2023-05-13T08:36:20.591Z,7.88
2023-05-13T08:39:24.518Z,6.85
2023-05-13T08:42:33.621Z,6.25
2023-05-13T08:45:39.294Z,7.38
2023-05-13T08:48:44.106Z,8.27
2023-05-13T08:51:48.366Z,6.45
2023-05-13T08:54:52.577Z,9.65
2023-05-13T08:57:56.634Z,4.22
2023-05-13T09:01:01.730Z,6.63
2023-05-13T09:04:09.172Z,9.20
2023-05-13T09:07:13.258Z,5.32
2023-05-13T09:10:18.107Z,8.20
2023-05-13T09:13:28.653Z,6.78
2023-05-13T09:16:33.165Z,8.15
2023-05-13T09:19:37.551Z,8.13
2023-05-13T09:22:49.492Z,5.93
2023-05-13T09:25:53.569Z,8.02
2023-05-13T09:29:19.854Z,6.97
2023-05-13T09:32:23.656Z,6.22
2023-05-13T09:35:27.534Z,7.85
2023-05-13T09:38:34.655Z,9.40
2023-05-13T09:41:39.258Z,7.10
2023-05-13T09:44:45.278Z,5.85
2023-05-13T09:47:53.014Z,9.60
2023-05-13T09:51:00.067Z,10.73
2023-05-13T09:54:06.323Z,7.22
2023-05-13T09:57:13.271Z,13.13
2023-05-13T10:00:28.851Z,7.28
2023-05-13T10:03:37.267Z,8.23
2023-05-13T10:06:41.525Z,6.30
2023-05-13T10:09:46.276Z,13.55
2023-05-13T10:12:51.628Z,7.80
2023-05-13T10:15:55.922Z,7.32
2023-05-13T10:19:01.005Z,10.30
2023-05-13T10:22:05.956Z,8.20
2023-05-13T10:25:11.458Z,9.52
2023-05-13T10:28:16.622Z,7.60
2023-05-13T10:31:20.969Z,7.00
2023-05-13T10:34:26.175Z,8.93
2023-05-13T10:37:42.864Z,8.52
2023-05-13T10:41:30.312Z,6.35
2023-05-13T10:44:35.520Z,7.07
2023-05-13T10:47:39.435Z,10.32
2023-05-13T10:50:56.620Z,8.20
2023-05-13T10:54:01.083Z,9.55
2023-05-13T10:57:05.312Z,9.10
2023-05-13T11:00:15.361Z,8.40
2023-05-13T11:03:19.932Z,8.48
2023-05-13T11:06:29.377Z,6.03
2023-05-13T11:09:38.253Z,10.05
2023-05-13T11:12:42.677Z,5.45
2023-05-13T11:15:54.561Z,6.78
2023-05-13T11:18:58.956Z,6.63
2023-05-13T11:22:10.653Z,7.78
2023-05-13T11:25:14.805Z,7.93
2023-05-13T11:28:57.001Z,8.55
2023-05-13T11:32:02.462Z,10.73
2023-05-13T11:35:07.716Z,10.93
2023-05-13T11:38:24.610Z,10.27
2023-05-13T11:41:32.508Z,8.43
2023-05-13T11:44:37.830Z,6.65
2023-05-13T11:47:42.144Z,8.18
2023-05-13T11:50:46.543Z,9.90
2023-05-13T11:53:53.201Z,9.13
2023-05-13T11:56:57.050Z,8.30
2023-05-13T12:00:06.539Z,5.03
2023-05-13T12:03:11.995Z,9.73
2023-05-13T12:06:18.259Z,8.13
2023-05-13T12:09:23.701Z,8.27
2023-05-13T12:12:29.734Z,5.25
2023-05-13T12:15:34.048Z,7.55
2023-05-13T12:18:38.321Z,5.70
2023-05-13T12:21:42.426Z,5.90
2023-05-13T12:24:46.531Z,9.52
2023-05-13T12:27:53.744Z,5.93
2023-05-13T12:31:03.136Z,5.75
2023-05-13T12:34:07.441Z,7.35
2023-05-13T12:37:13.230Z,5.70
2023-05-13T12:40:20.416Z,7.68
2023-05-13T12:43:24.851Z,4.63
2023-05-13T12:46:29.047Z,4.72
2023-05-13T12:49:34.198Z,6.47
2023-05-13T12:52:38.006Z,6.97
2023-05-13T12:55:42.452Z,4.25
2023-05-13T12:58:46.854Z,4.68
2023-05-13T13:01:51.259Z,5.40
2023-05-13T13:04:55.288Z,5.65
2023-05-13T13:08:01.155Z,5.97
2023-05-13T13:11:05.366Z,7.10
2023-05-13T13:14:09.698Z,11.20
2023-05-13T13:17:14.158Z,5.53
2023-05-13T13:20:18.451Z,6.85
2023-05-13T13:23:22.757Z,4.95
2023-05-13T13:26:27.075Z,9.63
2023-05-13T13:29:31.214Z,6.10
2023-05-13T13:32:35.994Z,6.00
2023-05-13T13:35:40.935Z,5.50
2023-05-13T13:38:44.918Z,7.93
2023-05-13T13:41:48.873Z,5.28
2023-05-13T13:44:52.761Z,6.22
2023-05-13T13:47:56.941Z,7.35
2023-05-13T13:51:01.060Z,5.75
2023-05-13T13:54:06.240Z,7.45
2023-05-13T13:57:10.408Z,6.28
2023-05-13T14:00:15.870Z,5.15
2023-05-13T14:03:20.278Z,6.15
2023-05-13T14:06:24.321Z,5.68
2023-05-13T14:09:28.425Z,6.07
2023-05-13T14:12:32.733Z,5.82
2023-05-13T14:15:39.122Z,7.63
2023-05-13T14:18:44.253Z,11.35
2023-05-13T14:21:48.497Z,7.60
2023-05-13T14:24:52.832Z,4.45
2023-05-13T14:27:56.615Z,3.33
2023-05-13T14:31:00.628Z,6.47
2023-05-13T14:34:07.794Z,4.97
2023-05-13T14:37:12.246Z,4.50
2023-05-13T14:40:16.446Z,5.35
2023-05-13T14:43:20.371Z,4.95
2023-05-13T14:46:24.228Z,5.35
2023-05-13T14:49:28.513Z,5.28
2023-05-13T14:52:32.633Z,7.90
2023-05-13T14:55:37.055Z,10.98
2023-05-13T14:58:41.354Z,7.25
2023-05-13T15:01:45.747Z,5.15
2023-05-13T15:04:51.005Z,4.03
2023-05-13T15:07:55.272Z,6.82
2023-05-13T15:11:00.761Z,4.07
2023-05-13T15:14:05.687Z,5.47
2023-05-13T15:17:12.413Z,7.50
2023-05-13T15:20:16.520Z,6.15
2023-05-13T15:23:20.521Z,5.70
2023-05-13T15:26:24.888Z,5.65
2023-05-13T15:29:29.590Z,4.57
2023-05-13T15:32:33.601Z,5.32
2023-05-13T15:35:39.105Z,4.00
2023-05-13T15:38:43.691Z,5.18
2023-05-13T15:41:48.044Z,5.93
2023-05-13T15:44:52.003Z,5.10
2023-05-13T15:47:55.939Z,5.32
2023-05-13T15:51:00.688Z,4.55
2023-05-13T15:54:04.949Z,5.40
2023-05-13T15:57:09.292Z,5.13
2023-05-13T16:00:14.310Z,6.90
2023-05-13T16:03:18.061Z,6.65
2023-05-13T16:06:22.186Z,4.80
2023-05-13T16:09:26.200Z,8.48
2023-05-13T16:12:31.390Z,3.75
2023-05-13T16:15:35.621Z,4.95
2023-05-13T16:18:39.928Z,4.07
2023-05-13T16:21:44.312Z,5.68
2023-05-13T16:24:48.153Z,8.65
2023-05-13T16:27:52.241Z,7.35
2023-05-13T16:30:58.551Z,6.10
2023-05-13T16:34:03.047Z,4.53
2023-05-13T16:37:06.835Z,6.75
2023-05-13T16:40:11.798Z,5.78
2023-05-13T16:43:16.007Z,18.00
2023-05-13T16:46:20.230Z,2.97
2023-05-13T16:49:24.883Z,3.47
2023-05-13T16:52:32.030Z,4.22
2023-05-13T16:55:36.073Z,3.22
2023-05-13T16:58:40.519Z,4.35
2023-05-13T17:01:44.420Z,3.83
2023-05-13T17:04:48.446Z,4.22
2023-05-13T17:07:52.252Z,5.95
2023-05-13T17:10:55.953Z,3.80
2023-05-13T17:14:00.272Z,3.50
2023-05-13T17:17:04.935Z,6.40
2023-05-13T17:20:10.059Z,3.90
2023-05-13T17:23:16.700Z,5.97
2023-05-13T17:26:21.924Z,3.30
2023-05-13T17:29:26.076Z,2.47
2023-05-13T17:32:31.661Z,4.72
2023-05-13T17:35:35.902Z,4.65
2023-05-13T17:38:40.102Z,5.05
2023-05-13T17:41:43.889Z,6.93
2023-05-13T17:44:48.087Z,5.53
2023-05-13T17:47:52.651Z,5.95
2023-05-13T17:50:57.425Z,5.38
2023-05-13T17:54:01.416Z,6.43
2023-05-13T17:57:05.575Z,4.78
2023-05-13T18:00:10.409Z,5.40
2023-05-13T18:03:14.613Z,5.65
2023-05-13T18:06:18.665Z,7.22
2023-05-13T18:09:22.769Z,7.25
2023-05-13T18:12:26.520Z,4.90
2023-05-13T18:15:30.649Z,4.93
2023-05-13T18:18:34.877Z,7.55
2023-05-13T18:21:39.437Z,8.90
2023-05-13T18:24:43.600Z,4.38
2023-05-13T18:27:50.052Z,5.25
2023-05-13T18:30:53.948Z,6.57
2023-05-13T18:33:57.969Z,6.30
2023-05-13T18:37:04.268Z,5.78
2023-05-13T18:40:08.934Z,5.38
2023-05-13T18:43:13.552Z,6.75
2023-05-13T18:46:17.610Z,5.47
2023-05-13T18:49:24.730Z,9.95
2023-05-13T18:52:29.010Z,8.10
2023-05-13T18:55:33.464Z,5.30
2023-05-13T18:58:37.695Z,9.57
2023-05-13T19:01:42.256Z,6.93
2023-05-13T19:04:46.202Z,5.78
2023-05-13T19:07:50.743Z,8.20
2023-05-13T19:10:55.078Z,9.02
2023-05-13T19:13:58.926Z,7.25
2023-05-13T19:17:03.538Z,8.20
2023-05-13T19:20:13.427Z,6.28
2023-05-13T19:23:17.691Z,6.93
2023-05-13T19:26:22.240Z,7.32
2023-05-13T19:29:26.789Z,6.68
2023-05-13T19:32:31.028Z,5.45
2023-05-13T19:35:36.058Z,7.65
2023-05-13T19:38:40.591Z,6.78
2023-05-13T19:41:47.185Z,7.03
2023-05-13T19:44:51.057Z,8.15
2023-05-13T19:47:57.895Z,7.18
2023-05-13T19:51:02.584Z,9.65
2023-05-13T19:54:09.473Z,8.65
2023-05-13T19:57:13.568Z,8.13
2023-05-13T20:00:17.816Z,10.48
2023-05-13T20:03:21.604Z,8.35
2023-05-13T20:06:26.674Z,7.28
2023-05-13T20:09:31.041Z,9.38
2023-05-13T20:12:35.480Z,8.73
2023-05-13T20:15:41.607Z,9.32
2023-05-13T20:18:45.852Z,6.60
2023-05-13T20:21:49.843Z,6.85
2023-05-13T20:24:54.424Z,7.43
2023-05-13T20:27:58.721Z,6.75
2023-05-13T20:31:03.235Z,9.88
2023-05-13T20:34:07.254Z,9.77
2023-05-13T20:37:11.237Z,9.48
2023-05-13T20:40:15.520Z,7.80
2023-05-13T20:43:19.749Z,9.57
2023-05-13T20:46:23.537Z,6.63
2023-05-13T20:49:27.611Z,7.53
2023-05-13T20:52:31.803Z,6.95
2023-05-13T20:55:36.029Z,8.27
2023-05-13T20:58:39.975Z,8.52
2023-05-13T21:01:47.376Z,6.00
2023-05-13T21:04:51.309Z,5.80
2023-05-13T21:07:55.528Z,7.05
2023-05-13T21:10:59.503Z,6.40
2023-05-13T21:14:03.589Z,7.30
2023-05-13T21:17:07.791Z,8.98
2023-05-13T21:20:12.524Z,6.22
2023-05-13T21:23:19.326Z,9.07
2023-05-13T21:26:24.825Z,8.27
2023-05-13T21:29:30.111Z,7.90
2023-05-13T21:32:34.248Z,6.95
2023-05-13T21:35:38.295Z,8.02
2023-05-13T21:38:42.298Z,6.25
2023-05-13T21:41:47.341Z,6.35
2023-05-13T21:44:51.526Z,7.05
2023-05-13T21:47:55.913Z,9.48
2023-05-13T21:51:00.335Z,10.07
2023-05-13T21:54:04.861Z,8.75
2023-05-13T21:57:09.226Z,7.97
2023-05-13T22:00:18.050Z,6.97
2023-05-13T22:03:21.992Z,8.20
2023-05-13T22:06:26.291Z,8.23
2023-05-13T22:09:31.613Z,9.95
2023-05-13T22:12:35.838Z,7.47
2023-05-13T22:15:39.764Z,8.77
2023-05-13T22:18:44.009Z,7.95
2023-05-13T22:21:48.201Z,6.78
2023-05-13T22:24:52.388Z,8.13
2023-05-13T22:27:56.500Z,6.53
2023-05-13T22:31:01.072Z,9.18
2023-05-13T22:34:04.847Z,8.95
2023-05-13T22:37:08.786Z,10.02
2023-05-13T22:40:13.354Z,10.20
2023-05-13T22:43:17.192Z,9.93
2023-05-13T22:46:21.332Z,9.30
2023-05-13T22:49:25.277Z,7.38
2023-05-13T22:52:29.670Z,8.02
2023-05-13T22:55:33.811Z,9.75
2023-05-13T22:58:37.706Z,8.57
2023-05-13T23:01:41.761Z,7.93
2023-05-13T23:04:45.976Z,9.18
2023-05-13T23:07:50.499Z,7.88
2023-05-13T23:10:55.952Z,12.80
2023-05-13T23:13:59.816Z,10.20
2023-05-13T23:17:03.678Z,8.75
2023-05-13T23:20:08.483Z,7.72
2023-05-13T23:23:12.929Z,10.25
2023-05-13T23:26:17.094Z,8.75
2023-05-13T23:29:21.062Z,10.38
2023-05-13T23:32:25.836Z,7.60
2023-05-13T23:35:30.557Z,10.27
2023-05-13T23:38:34.670Z,7.65
2023-05-13T23:41:38.488Z,8.40
2023-05-13T23:44:42.302Z,7.95
2023-05-13T23:47:46.283Z,8.70
2023-05-13T23:50:50.584Z,9.45
2023-05-13T23:53:55.405Z,7.80
2023-05-13T23:56:59.405Z,7.38
